createdAt,value
2023-05-07T00:01:49.341Z,13.40
2023-05-07T00:04:16.380Z,13.38
2023-05-07T00:09:10.535Z,13.39
2023-05-07T08:11:44.619Z,10.37
2023-05-07T08:14:14.081Z,10.35
2023-05-07T08:16:41.157Z,10.37
2023-05-07T08:19:08.927Z,10.34
2023-05-07T08:21:36.328Z,10.35
2023-05-07T08:24:04.599Z,10.41
2023-05-07T08:26:32.502Z,10.43
2023-05-07T08:29:00.199Z,10.46
2023-05-07T08:31:28.578Z,10.43
2023-05-07T08:33:55.977Z,10.38
2023-05-07T08:36:24.676Z,10.35
2023-05-07T08:38:52.186Z,10.34
2023-05-07T08:41:19.553Z,10.32
2023-05-07T08:43:51.679Z,10.29
2023-05-07T08:46:21.128Z,10.25
2023-05-07T08:48:54.998Z,10.20
2023-05-07T08:51:22.370Z,10.24
2023-05-07T08:53:50.933Z,10.34
2023-05-07T08:56:25.124Z,10.37
2023-05-07T08:58:52.831Z,10.30
2023-05-07T09:01:20.009Z,10.21
2023-05-07T09:03:50.574Z,10.15
2023-05-07T09:06:18.718Z,10.20
2023-05-07T09:09:06.188Z,10.28
2023-05-07T09:11:38.581Z,10.32
2023-05-07T09:14:09.768Z,10.31
2023-05-07T09:16:40.869Z,10.30
2023-05-07T09:19:08.957Z,10.31
2023-05-07T09:21:38.582Z,10.39
2023-05-07T09:24:07.637Z,10.50
2023-05-07T09:26:37.649Z,10.55
2023-05-07T09:29:07.934Z,10.56
2023-05-07T09:31:39.174Z,10.54
2023-05-07T09:34:06.521Z,10.52
2023-05-07T09:36:34.226Z,10.57
2023-05-07T09:39:01.613Z,10.66
2023-05-07T09:41:29.262Z,10.72
2023-05-07T09:44:02.930Z,10.72
2023-05-07T09:46:35.673Z,10.68
2023-05-07T09:49:05.658Z,10.61
2023-05-07T09:51:42.924Z,10.58
2023-05-07T09:54:10.474Z,10.63
2023-05-07T09:56:38.945Z,10.65
2023-05-07T09:59:06.495Z,10.64
2023-05-07T10:01:33.597Z,10.64
2023-05-07T10:04:03.284Z,10.61
2023-05-07T10:06:33.290Z,10.62
2023-05-07T10:09:00.362Z,10.70
2023-05-07T10:11:27.608Z,10.75
2023-05-07T10:13:55.104Z,10.76
2023-05-07T10:16:22.269Z,10.74
2023-05-07T10:18:49.942Z,10.70
2023-05-07T10:21:24.509Z,10.74
2023-05-07T10:24:00.072Z,10.79
2023-05-07T10:26:28.334Z,10.80
2023-05-07T10:29:00.945Z,10.76
2023-05-07T10:32:05.952Z,10.73
2023-05-07T10:34:55.472Z,10.70
2023-05-07T10:37:23.125Z,10.74
2023-05-07T10:39:53.783Z,10.82
2023-05-07T10:47:38.400Z,10.87
2023-05-07T10:52:13.577Z,10.98
2023-05-07T10:54:41.450Z,11.07
2023-05-07T10:57:29.804Z,11.11
2023-05-07T10:59:59.300Z,11.12
2023-05-07T11:03:06.201Z,11.15
2023-05-07T11:05:39.366Z,11.28
2023-05-07T11:08:17.513Z,11.38
2023-05-07T11:11:05.277Z,11.39
2023-05-07T11:13:47.866Z,11.37
2023-05-07T11:16:31.378Z,11.30
2023-05-07T11:19:04.977Z,11.23
2023-05-07T11:21:41.187Z,11.22
2023-05-07T11:24:25.937Z,11.24
2023-05-07T11:26:59.542Z,11.23
2023-05-07T11:29:28.796Z,11.16
2023-05-07T11:32:07.935Z,11.06
2023-05-07T11:34:54.891Z,11.01
2023-05-07T11:37:23.158Z,11.01
2023-05-07T11:40:08.933Z,11.07
2023-05-07T11:42:38.919Z,11.10
2023-05-07T11:45:07.448Z,11.09
2023-05-07T11:47:34.798Z,11.05
2023-05-07T11:50:07.166Z,11.00
2023-05-07T11:52:34.516Z,10.98
2023-05-07T11:55:04.794Z,11.01
2023-05-07T11:57:31.803Z,11.00
2023-05-07T11:59:59.904Z,10.98
2023-05-07T12:02:27.392Z,10.95
2023-05-07T12:04:55.191Z,10.92
2023-05-07T12:07:22.712Z,10.96
2023-05-07T12:09:49.657Z,11.04
2023-05-07T12:12:19.618Z,11.04
2023-05-07T12:14:46.861Z,11.03
2023-05-07T12:17:14.981Z,11.03
2023-05-07T12:19:44.031Z,11.04
2023-05-07T12:22:10.955Z,11.11
2023-05-07T12:25:04.842Z,11.21
2023-05-07T12:27:31.854Z,11.26
2023-05-07T12:29:59.124Z,11.24
2023-05-07T12:32:27.174Z,11.22
2023-05-07T12:34:54.066Z,11.22
2023-05-07T12:37:30.362Z,11.26
2023-05-07T12:40:08.560Z,11.33
2023-05-07T12:42:39.309Z,11.35
2023-05-07T12:45:30.385Z,11.34
2023-05-07T12:47:57.376Z,11.34
2023-05-07T12:50:24.309Z,11.35
2023-05-07T12:52:51.159Z,11.43
2023-05-07T12:55:18.302Z,11.54
2023-05-07T12:57:49.023Z,11.58
2023-05-07T13:00:16.421Z,11.58
2023-05-07T13:02:47.689Z,11.58
2023-05-07T13:05:15.151Z,11.56
2023-05-07T13:07:53.516Z,11.52
2023-05-07T13:10:21.138Z,11.55
2023-05-07T13:12:48.284Z,11.62
2023-05-07T13:15:16.052Z,11.66
2023-05-07T13:17:47.801Z,11.65
2023-05-07T13:20:15.088Z,11.63
2023-05-07T13:22:42.029Z,11.60
2023-05-07T13:25:09.797Z,11.59
2023-05-07T13:27:38.064Z,11.60
2023-05-07T13:30:08.830Z,11.63
2023-05-07T13:32:36.320Z,11.65
2023-05-07T13:35:05.917Z,11.64
2023-05-07T13:37:33.042Z,11.60
2023-05-07T13:40:00.348Z,11.53
2023-05-07T13:42:30.154Z,11.47
2023-05-07T13:44:57.848Z,11.49
2023-05-07T13:47:25.645Z,11.56
2023-05-07T13:49:54.675Z,11.59
2023-05-07T13:52:22.461Z,11.59
2023-05-07T13:54:49.466Z,11.58
2023-05-07T13:57:16.525Z,11.56
2023-05-07T13:59:46.578Z,11.50
2023-05-07T14:02:14.265Z,11.48
2023-05-07T14:04:41.599Z,11.46
2023-05-07T14:07:08.616Z,11.47
2023-05-07T14:09:35.494Z,11.46
2023-05-07T14:14:07.477Z,11.47
2023-05-07T14:16:34.467Z,11.36
2023-05-07T14:19:01.443Z,11.33
2023-05-07T14:21:29.331Z,11.31
2023-05-07T14:23:58.911Z,11.28
2023-05-07T14:26:28.160Z,11.24
2023-05-07T14:28:56.464Z,11.21
2023-05-07T14:31:26.007Z,11.19
2023-05-07T14:33:53.091Z,11.21
2023-05-07T14:36:24.125Z,11.23
2023-05-07T14:38:51.025Z,11.20
2023-05-07T14:41:17.957Z,11.16
2023-05-07T14:43:51.088Z,11.12
2023-05-07T14:46:19.051Z,11.09
2023-05-07T14:48:47.290Z,11.11
2023-05-07T14:51:14.672Z,11.15
2023-05-07T14:53:42.542Z,11.17
2023-05-07T14:56:09.572Z,11.14
2023-05-07T14:58:36.463Z,11.11
2023-05-07T15:01:03.446Z,11.06
2023-05-07T15:03:30.841Z,11.06
2023-05-07T15:05:57.930Z,11.05
2023-05-07T15:08:25.073Z,11.04
2023-05-07T15:10:51.960Z,11.04
2023-05-07T15:13:19.175Z,11.01
2023-05-07T15:15:46.339Z,10.96
2023-05-07T15:18:13.226Z,10.90
2023-05-07T15:20:40.146Z,10.92
2023-05-07T15:23:10.954Z,10.97
2023-05-07T15:25:38.759Z,11.00
2023-05-07T15:28:06.003Z,11.01
2023-05-07T15:30:33.066Z,11.00
2023-05-07T15:33:00.052Z,10.96
2023-05-07T15:35:27.277Z,11.01
2023-05-07T15:37:54.928Z,11.06
2023-05-07T15:40:24.875Z,11.06
2023-05-07T15:42:52.096Z,11.03
2023-05-07T15:45:19.070Z,10.98
2023-05-07T15:47:46.356Z,10.93
2023-05-07T15:50:15.788Z,10.84
2023-05-07T15:52:42.807Z,10.77
2023-05-07T15:55:10.249Z,10.76
2023-05-07T15:57:37.518Z,10.75
2023-05-07T16:00:06.205Z,10.70
2023-05-07T16:02:41.553Z,10.62
2023-05-07T16:05:11.042Z,10.53
2023-05-07T16:07:38.996Z,10.54
2023-05-07T16:10:08.273Z,10.54
2023-05-07T16:12:35.420Z,10.51
2023-05-07T16:15:02.521Z,10.51
2023-05-07T16:17:29.709Z,10.51
2023-05-07T16:19:59.209Z,10.49
2023-05-07T16:22:27.058Z,10.54
2023-05-07T16:24:54.480Z,10.61
2023-05-07T16:27:22.339Z,10.64
2023-05-07T16:29:49.554Z,10.59
2023-05-07T16:32:16.590Z,10.51
2023-05-07T16:34:43.670Z,10.45
2023-05-07T16:37:10.920Z,10.46
2023-05-07T16:39:38.890Z,10.48
2023-05-07T16:42:06.076Z,10.44
2023-05-07T16:44:33.281Z,10.39
2023-05-07T16:47:00.570Z,10.37
2023-05-07T20:29:22.965Z,9.89
2023-05-07T20:31:50.091Z,9.90
2023-05-07T20:34:17.084Z,9.88
2023-05-07T20:36:45.343Z,9.79
2023-05-07T20:39:16.164Z,9.67
2023-05-07T20:41:44.461Z,9.60
2023-05-07T20:44:11.660Z,9.56
2023-05-07T20:46:38.620Z,9.54
2023-05-07T20:49:05.764Z,9.47
2023-05-07T20:51:32.755Z,9.41
2023-05-07T20:54:02.245Z,9.40
2023-05-07T20:56:29.234Z,9.43
2023-05-07T20:58:56.102Z,9.40
2023-05-07T21:01:23.093Z,9.34
2023-05-07T21:03:53.907Z,9.29
2023-05-07T21:06:21.091Z,9.29
2023-05-07T21:08:48.003Z,9.31
2023-05-07T21:11:14.948Z,9.30
2023-05-07T21:13:41.908Z,9.28
2023-05-07T21:16:10.387Z,9.25
2023-05-07T21:18:37.465Z,9.23
2023-05-07T21:21:10.889Z,9.21
2023-05-07T21:23:37.827Z,9.24
2023-05-07T21:26:04.780Z,9.25
2023-05-07T21:28:31.740Z,9.22
2023-05-07T21:30:58.658Z,9.17
2023-05-07T21:33:25.661Z,9.17
2023-05-07T21:35:52.754Z,9.15
2023-05-07T21:38:19.713Z,9.12
2023-05-07T21:40:49.858Z,9.08
2023-05-07T21:43:17.119Z,9.05
2023-05-07T21:45:44.239Z,9.05
2023-05-07T21:48:11.320Z,9.07
2023-05-07T21:50:38.204Z,9.09
2023-05-07T21:53:05.438Z,9.08
2023-05-07T21:55:34.617Z,9.07
2023-05-07T21:58:05.462Z,9.06
2023-05-07T22:00:33.361Z,9.08
2023-05-07T22:03:00.892Z,9.07
2023-05-07T22:05:28.276Z,9.02
2023-05-07T22:08:00.333Z,8.93
2023-05-07T22:10:27.265Z,8.87
2023-05-07T22:12:56.543Z,8.86
2023-05-07T22:15:23.591Z,8.87
2023-05-07T22:17:50.830Z,8.83
2023-05-07T22:20:17.895Z,8.79
2023-05-07T22:22:51.192Z,8.76
2023-05-07T22:25:19.540Z,8.80
2023-05-07T22:27:47.019Z,8.81
2023-05-07T22:30:14.233Z,8.76
2023-05-07T22:32:45.094Z,8.71
2023-05-07T22:35:12.145Z,8.65
2023-05-07T22:37:39.507Z,8.68
2023-05-07T22:40:07.308Z,8.74
2023-05-07T22:42:34.716Z,8.76
2023-05-07T22:45:01.605Z,8.75
2023-05-07T22:47:31.680Z,8.71
2023-05-07T22:49:58.640Z,8.73
2023-05-07T22:52:25.585Z,8.78
2023-05-07T22:54:57.501Z,8.82
2023-05-07T22:57:24.370Z,8.78
2023-05-07T22:59:57.921Z,8.68
2023-05-07T23:02:27.131Z,8.68
2023-05-07T23:04:54.405Z,8.68
2023-05-07T23:07:21.465Z,8.64
2023-05-07T23:09:48.408Z,8.61
2023-05-07T23:12:15.453Z,8.58
2023-05-07T23:14:42.391Z,8.62
2023-05-07T23:17:09.321Z,8.65
2023-05-07T23:19:37.308Z,8.58
2023-05-07T23:22:04.311Z,8.45
2023-05-07T23:24:31.210Z,8.35
2023-05-07T23:27:02.041Z,8.29
2023-05-07T23:29:28.938Z,8.27
2023-05-07T23:31:55.919Z,8.20
2023-05-07T23:34:24.247Z,8.11
2023-05-07T23:36:51.446Z,8.00
2023-05-07T23:39:19.050Z,7.96
2023-05-07T23:41:46.204Z,8.00
2023-05-07T23:44:13.774Z,8.03
2023-05-07T23:46:41.362Z,8.04
2023-05-07T23:49:08.515Z,8.05
2023-05-07T23:51:35.510Z,8.09
2023-05-07T23:54:02.874Z,8.12
2023-05-07T23:56:29.811Z,8.12
2023-05-07T23:58:56.757Z,8.08
